createdAt,value
2022-08-05T00:01:20.940Z,100461.84
2022-08-05T00:05:05.899Z,100449.03
2022-08-05T00:08:00.521Z,100452.88
2022-08-05T00:11:30.219Z,100454.06
2022-08-05T00:15:57.994Z,100442.69
2022-08-05T00:18:21.359Z,100448.53
2022-08-05T00:27:04.689Z,100459.25
2022-08-05T00:34:54.892Z,100440.56
2022-08-05T00:37:11.418Z,100436.38
2022-08-05T00:41:17.120Z,100461.56
2022-08-05T00:44:37.944Z,100452.81
2022-08-05T00:48:13.980Z,100436.66
2022-08-05T00:51:50.728Z,100441.16
2022-08-05T00:54:30.365Z,100445.09
2022-08-05T00:57:21.245Z,100440.41
2022-08-05T01:00:26.951Z,100451.16
2022-08-05T01:03:33.407Z,100441.56
2022-08-05T01:06:15.601Z,100442.41
2022-08-05T01:09:08.779Z,100452.63
2022-08-05T01:11:54.895Z,100441.25
2022-08-05T01:14:42.918Z,100461.41
2022-08-05T01:21:37.867Z,100453.88
2022-08-05T01:25:39.746Z,100463.53
2022-08-05T01:27:55.661Z,100462.81
2022-08-05T01:31:55.125Z,100449.69
2022-08-05T01:35:10.698Z,100446.94
2022-08-05T01:37:51.361Z,100454.72
2022-08-05T01:40:36.059Z,100452.00
2022-08-05T01:43:41.873Z,100437.50
2022-08-05T01:47:07.834Z,100448.06
2022-08-05T01:50:01.628Z,100421.00
2022-08-05T01:52:52.175Z,100434.22
2022-08-05T01:59:24.254Z,100426.13
2022-08-05T02:05:11.831Z,100445.41
2022-08-05T02:08:58.281Z,100449.13
2022-08-05T03:02:27.647Z,100487.94
2022-08-05T03:27:09.299Z,100494.19
2022-08-05T03:39:47.431Z,100522.41
2022-08-05T03:43:59.219Z,100503.19
2022-08-05T03:46:03.697Z,100540.41
2022-08-05T03:48:40.278Z,100548.81
2022-08-05T03:59:54.939Z,100530.88
2022-08-05T04:03:32.065Z,100539.31
2022-08-05T04:54:07.828Z,100534.03
2022-08-05T04:57:28.666Z,100536.59
2022-08-05T05:00:29.061Z,100549.09
2022-08-05T05:03:58.715Z,100535.66
2022-08-05T05:06:51.915Z,100542.53
2022-08-05T05:09:51.239Z,100558.94
2022-08-05T22:11:16.659Z,100400.94
2022-08-05T22:14:33.608Z,100414.03
2022-08-05T22:16:51.886Z,100405.13
2022-08-05T22:20:11.376Z,100430.78
2022-08-05T22:23:16.827Z,100402.22
2022-08-05T22:26:15.050Z,100410.06
2022-08-05T22:30:09.816Z,100409.84
2022-08-05T22:32:36.566Z,100417.25
2022-08-05T22:35:04.790Z,100423.69
2022-08-05T22:37:58.875Z,100408.72
2022-08-05T22:40:27.930Z,100425.25
2022-08-05T22:43:08.365Z,100420.34
2022-08-05T22:45:42.934Z,100420.69
2022-08-05T22:48:22.115Z,100431.28
2022-08-05T22:50:59.065Z,100435.81
2022-08-05T22:53:35.989Z,100405.38
2022-08-05T22:56:05.163Z,100428.34
2022-08-05T22:58:43.753Z,100420.47
2022-08-05T23:01:14.245Z,100404.66
2022-08-05T23:03:58.126Z,100419.63
2022-08-05T23:06:59.863Z,100429.09
2022-08-05T23:09:58.230Z,100426.19
2022-08-05T23:12:24.451Z,100418.09
2022-08-05T23:14:57.723Z,100403.97
2022-08-05T23:17:59.648Z,100427.66
2022-08-05T23:20:25.190Z,100420.47
2022-08-05T23:23:00.531Z,100415.53
2022-08-05T23:25:51.955Z,100431.81
2022-08-05T23:28:36.151Z,100422.41
2022-08-05T23:31:16.967Z,100421.75
2022-08-05T23:34:04.519Z,100418.75
2022-08-05T23:36:44.897Z,100428.75
2022-08-05T23:39:31.974Z,100416.69
2022-08-05T23:42:02.809Z,100432.66
2022-08-05T23:44:42.684Z,100421.31
2022-08-05T23:47:17.306Z,100425.28
2022-08-05T23:49:49.328Z,100431.56
2022-08-05T23:52:49.871Z,100413.75
2022-08-05T23:55:31.161Z,100404.50
2022-08-05T23:58:02.104Z,100417.75
